createdAt,value
2023-05-05T00:00:29.925Z,95408.00
2023-05-05T00:01:29.918Z,95408.00
2023-05-05T00:02:30.023Z,95410.00
2023-05-05T00:03:30.069Z,95408.00
2023-05-05T00:04:30.003Z,95406.00
2023-05-05T00:05:30.057Z,95408.00
2023-05-05T00:06:30.049Z,95408.00
2023-05-05T00:07:30.105Z,95406.00
2023-05-05T00:08:30.177Z,95404.00
2023-05-05T00:09:30.155Z,95406.00
2023-05-05T00:10:30.160Z,95404.00
2023-05-05T00:11:30.289Z,95406.00
2023-05-05T00:12:30.359Z,95404.00
2023-05-05T00:13:30.282Z,95404.00
2023-05-05T00:14:30.324Z,95404.00
2023-05-05T00:15:30.313Z,95404.00
2023-05-05T00:16:30.421Z,95406.00
2023-05-05T00:17:30.451Z,95406.00
2023-05-05T00:18:30.418Z,95406.00
2023-05-05T00:19:30.429Z,95402.00
2023-05-05T00:20:30.476Z,95404.00
2023-05-05T00:21:30.477Z,95406.00
2023-05-05T00:22:30.540Z,95406.00
2023-05-05T00:23:30.561Z,95404.00
2023-05-05T00:24:30.603Z,95406.00
2023-05-05T00:25:30.620Z,95404.00
2023-05-05T00:26:30.643Z,95404.00
2023-05-05T00:27:30.713Z,95406.00
2023-05-05T00:28:30.737Z,95406.00
2023-05-05T00:29:30.754Z,95404.00
2023-05-05T00:30:30.791Z,95404.00
2023-05-05T00:31:30.884Z,95404.00
2023-05-05T00:32:30.892Z,95404.00
2023-05-05T00:33:30.933Z,95404.00
2023-05-05T00:34:30.944Z,95404.00
2023-05-05T00:35:30.946Z,95406.00
2023-05-05T00:36:30.992Z,95406.00
2023-05-05T00:37:31.061Z,95406.00
2023-05-05T00:38:31.074Z,95408.00
2023-05-05T00:39:31.078Z,95404.00
2023-05-05T00:40:31.128Z,95408.00
2023-05-05T00:41:31.126Z,95406.00
2023-05-05T00:42:31.438Z,95408.00
2023-05-05T00:43:31.203Z,95408.00
2023-05-05T00:44:31.208Z,95408.00
2023-05-05T00:45:31.261Z,95410.00
2023-05-05T00:46:31.338Z,95410.00
2023-05-05T00:47:31.510Z,95410.00
2023-05-05T00:48:31.390Z,95410.00
2023-05-05T00:49:31.459Z,95412.00
2023-05-05T00:50:31.447Z,95410.00
2023-05-05T00:51:31.477Z,95408.00
2023-05-05T00:52:31.514Z,95406.00
2023-05-05T00:53:31.584Z,95406.00
2023-05-05T00:54:31.588Z,95406.00
2023-05-05T00:55:31.655Z,95408.00
2023-05-05T00:56:31.665Z,95408.00
2023-05-05T00:57:31.706Z,95410.00
2023-05-05T00:58:31.765Z,95408.00
2023-05-05T00:59:31.766Z,95404.00
2023-05-05T01:00:31.830Z,95408.00
2023-05-05T01:01:31.895Z,95404.00
2023-05-05T01:02:32.011Z,95408.00
2023-05-05T01:03:31.965Z,95410.00
2023-05-05T01:04:32.026Z,95406.00
2023-05-05T01:05:31.954Z,95404.00
2023-05-05T01:06:31.968Z,95404.00
2023-05-05T01:07:32.028Z,95402.00
2023-05-05T01:08:32.028Z,95404.00
2023-05-05T01:09:32.039Z,95404.00
2023-05-05T01:10:32.067Z,95402.00
2023-05-05T01:11:32.113Z,95404.00
2023-05-05T01:12:32.204Z,95400.00
2023-05-05T01:13:32.173Z,95402.00
2023-05-05T01:14:32.235Z,95402.00
2023-05-05T01:15:32.256Z,95402.00
2023-05-05T01:16:32.368Z,95404.00
2023-05-05T01:17:32.376Z,95404.00
2023-05-05T01:18:32.373Z,95406.00
2023-05-05T01:19:32.422Z,95404.00
2023-05-05T01:20:32.417Z,95404.00
2023-05-05T01:21:32.494Z,95406.00
2023-05-05T01:22:32.538Z,95404.00
2023-05-05T01:23:32.586Z,95400.00
2023-05-05T01:24:32.592Z,95402.00
2023-05-05T01:25:32.652Z,95404.00
2023-05-05T01:26:32.644Z,95406.00
2023-05-05T01:27:32.722Z,95406.00
2023-05-05T01:28:32.751Z,95408.00
2023-05-05T01:29:32.769Z,95408.00
2023-05-05T01:30:32.816Z,95412.00
2023-05-05T01:31:32.885Z,95410.00
2023-05-05T01:32:32.897Z,95412.00
2023-05-05T01:33:32.878Z,95408.00
2023-05-05T01:34:32.915Z,95406.00
2023-05-05T01:35:32.980Z,95408.00
2023-05-05T01:36:33.973Z,95412.00
2023-05-05T01:37:33.059Z,95412.00
2023-05-05T01:38:33.078Z,95414.00
2023-05-05T01:39:33.103Z,95414.00
2023-05-05T01:40:33.952Z,95414.00
2023-05-05T01:41:33.243Z,95414.00
2023-05-05T01:42:33.234Z,95412.00
2023-05-05T01:43:33.256Z,95412.00
2023-05-05T01:44:33.311Z,95412.00
2023-05-05T01:45:33.449Z,95414.00
2023-05-05T01:46:33.367Z,95414.00
2023-05-05T01:47:33.430Z,95416.00
2023-05-05T01:48:33.430Z,95416.00
2023-05-05T01:49:33.485Z,95418.00
2023-05-05T01:50:33.505Z,95414.00
2023-05-05T01:51:33.554Z,95414.00
2023-05-05T01:52:33.570Z,95410.00
2023-05-05T01:53:33.639Z,95408.00
2023-05-05T01:54:33.686Z,95408.00
2023-05-05T01:55:33.699Z,95410.00
2023-05-05T01:56:33.732Z,95410.00
2023-05-05T01:57:33.759Z,95414.00
2023-05-05T01:58:33.777Z,95416.00
2023-05-05T01:59:33.812Z,95420.00
2023-05-05T02:00:33.869Z,95422.00
2023-05-05T02:01:33.937Z,95424.00
2023-05-05T02:02:33.964Z,95422.00
2023-05-05T02:03:34.028Z,95418.00
2023-05-05T02:04:34.028Z,95414.00
2023-05-05T02:05:34.061Z,95414.00
2023-05-05T02:06:34.104Z,95416.00
2023-05-05T02:07:34.187Z,95418.00
2023-05-05T02:08:34.179Z,95422.00
2023-05-05T02:09:34.268Z,95424.00
2023-05-05T02:10:34.305Z,95422.00
2023-05-05T02:11:34.350Z,95424.00
2023-05-05T02:12:34.423Z,95424.00
2023-05-05T02:13:34.438Z,95422.00
2023-05-05T02:14:34.502Z,95424.00
2023-05-05T02:15:34.559Z,95424.00
2023-05-05T02:16:34.588Z,95428.00
2023-05-05T02:17:35.008Z,95430.00
2023-05-05T02:18:34.665Z,95430.00
2023-05-05T02:19:34.709Z,95430.00
2023-05-05T02:20:34.822Z,95430.00
2023-05-05T02:21:34.875Z,95426.00
2023-05-05T02:22:34.884Z,95428.00
2023-05-05T02:23:34.918Z,95428.00
2023-05-05T02:24:34.987Z,95430.00
2023-05-05T02:25:35.043Z,95438.00
2023-05-05T02:26:35.073Z,95430.00
2023-05-05T02:27:35.100Z,95430.00
2023-05-05T02:28:35.192Z,95430.00
2023-05-05T02:29:35.230Z,95430.00
2023-05-05T02:30:35.295Z,95438.00
2023-05-05T02:31:35.340Z,95438.00
2023-05-05T02:32:35.386Z,95430.00
2023-05-05T02:33:35.403Z,95438.00
2023-05-05T02:34:36.000Z,95428.00
2023-05-05T02:35:35.468Z,95428.00
2023-05-05T02:36:35.539Z,95428.00
2023-05-05T02:37:35.604Z,95428.00
2023-05-05T02:38:35.623Z,95428.00
2023-05-05T02:39:35.726Z,95430.00
2023-05-05T02:40:35.767Z,95442.00
2023-05-05T02:41:35.801Z,95440.00
2023-05-05T02:42:35.968Z,95442.00
2023-05-05T02:43:35.898Z,95440.00
2023-05-05T02:44:35.949Z,95440.00
2023-05-05T02:45:36.016Z,95442.00
2023-05-05T02:46:36.145Z,95442.00
2023-05-05T02:47:36.235Z,95442.00
2023-05-05T02:48:36.180Z,95444.00
2023-05-05T02:49:36.252Z,95445.00
2023-05-05T02:50:36.259Z,95442.00
2023-05-05T02:51:36.330Z,95442.00
2023-05-05T02:52:36.425Z,95444.00
2023-05-05T02:53:36.454Z,95445.00
2023-05-05T02:54:36.497Z,95447.00
2023-05-05T02:55:36.561Z,95444.00
2023-05-05T02:56:36.623Z,95444.00
2023-05-05T02:57:36.716Z,95444.00
2023-05-05T02:58:36.765Z,95444.00
2023-05-05T02:59:36.830Z,95444.00
2023-05-05T03:00:36.859Z,95440.00
2023-05-05T03:01:36.992Z,95440.00
2023-05-05T03:02:37.000Z,95444.00
2023-05-05T03:03:37.128Z,95445.00
2023-05-05T03:04:37.117Z,95445.00
2023-05-05T03:05:37.171Z,95444.00
2023-05-05T03:06:37.231Z,95447.00
2023-05-05T03:07:37.263Z,95449.00
2023-05-05T03:08:37.347Z,95445.00
2023-05-05T03:09:37.417Z,95445.00
2023-05-05T03:10:37.506Z,95445.00
2023-05-05T03:11:37.531Z,95445.00
2023-05-05T03:12:37.656Z,95444.00
2023-05-05T03:13:37.681Z,95442.00
2023-05-05T03:14:37.709Z,95444.00
2023-05-05T03:15:37.806Z,95444.00
2023-05-05T03:16:37.949Z,95445.00
2023-05-05T03:17:37.908Z,95444.00
2023-05-05T03:18:37.957Z,95445.00
2023-05-05T03:19:37.996Z,95445.00
2023-05-05T03:20:38.038Z,95444.00
2023-05-05T03:21:38.097Z,95445.00
2023-05-05T03:22:38.173Z,95445.00
2023-05-05T03:23:38.240Z,95444.00
2023-05-05T03:24:38.279Z,95444.00
2023-05-05T03:25:38.384Z,95444.00
2023-05-05T03:26:38.445Z,95444.00
2023-05-05T03:27:38.556Z,95442.00
2023-05-05T03:28:38.536Z,95440.00
2023-05-05T03:29:38.584Z,95442.00
2023-05-05T03:30:38.657Z,95444.00
2023-05-05T03:31:38.779Z,95445.00
2023-05-05T03:32:38.776Z,95445.00
2023-05-05T03:33:38.839Z,95445.00
2023-05-05T03:34:38.894Z,95447.00
2023-05-05T03:35:38.974Z,95445.00
2023-05-05T03:36:39.022Z,95444.00
2023-05-05T03:37:39.062Z,95447.00
2023-05-05T03:38:39.143Z,95445.00
2023-05-05T03:39:39.173Z,95444.00
2023-05-05T03:40:44.127Z,95445.00
2023-05-05T03:41:40.307Z,95447.00
2023-05-05T03:42:39.518Z,95447.00
2023-05-05T03:43:39.203Z,95447.00
2023-05-05T03:44:39.214Z,95445.00
2023-05-05T03:45:39.287Z,95447.00
2023-05-05T03:46:39.194Z,95447.00
2023-05-05T03:47:39.222Z,95445.00
2023-05-05T03:48:39.191Z,95447.00
2023-05-05T03:49:39.207Z,95444.00
2023-05-05T03:50:39.235Z,95447.00
2023-05-05T03:51:39.362Z,95444.00
2023-05-05T03:52:39.502Z,95442.00
2023-05-05T03:53:39.376Z,95444.00
2023-05-05T03:54:39.452Z,95442.00
2023-05-05T03:55:39.533Z,95444.00
2023-05-05T03:56:39.567Z,95444.00
2023-05-05T03:57:39.672Z,95444.00
2023-05-05T03:58:39.671Z,95444.00
2023-05-05T03:59:39.798Z,95444.00
2023-05-05T04:00:39.800Z,95440.00
2023-05-05T04:01:39.870Z,95440.00
2023-05-05T04:02:39.980Z,95438.00
2023-05-05T04:03:40.027Z,95438.00
2023-05-05T04:04:39.987Z,95442.00
2023-05-05T04:05:40.071Z,95442.00
2023-05-05T04:06:40.149Z,95444.00
2023-05-05T04:07:40.286Z,95444.00
2023-05-05T04:08:40.229Z,95445.00
2023-05-05T04:09:40.309Z,95444.00
2023-05-05T04:10:40.340Z,95445.00
2023-05-05T04:11:40.454Z,95447.00
2023-05-05T04:12:40.485Z,95447.00
2023-05-05T04:13:40.550Z,95445.00
2023-05-05T04:14:40.611Z,95444.00
2023-05-05T04:15:40.749Z,95445.00
2023-05-05T04:16:40.744Z,95445.00
2023-05-05T04:17:40.852Z,95444.00
2023-05-05T04:18:40.852Z,95447.00
2023-05-05T04:19:40.885Z,95445.00
2023-05-05T04:20:40.973Z,95445.00
2023-05-05T04:21:41.038Z,95445.00
2023-05-05T04:22:41.073Z,95447.00
2023-05-05T04:23:41.156Z,95449.00
2023-05-05T04:24:41.241Z,95447.00
2023-05-05T04:25:41.273Z,95447.00
2023-05-05T04:26:41.314Z,95447.00
2023-05-05T04:27:41.428Z,95447.00
2023-05-05T04:28:41.448Z,95447.00
2023-05-05T04:29:41.538Z,95449.00
2023-05-05T04:30:42.530Z,95449.00
2023-05-05T04:31:41.689Z,95451.00
2023-05-05T04:32:42.089Z,95449.00
2023-05-05T04:33:41.768Z,95453.00
2023-05-05T04:34:41.812Z,95451.00
2023-05-05T04:35:41.894Z,95451.00
2023-05-05T04:36:41.935Z,95455.00
2023-05-05T04:37:42.022Z,95455.00
2023-05-05T04:38:42.118Z,95457.00
2023-05-05T04:39:42.106Z,95459.00
2023-05-05T04:40:42.217Z,95459.00
2023-05-05T04:41:42.226Z,95457.00
2023-05-05T04:42:42.342Z,95457.00
2023-05-05T04:43:42.400Z,95457.00
2023-05-05T04:44:42.455Z,95459.00
2023-05-05T04:45:42.510Z,95459.00
2023-05-05T04:46:42.623Z,95461.00
2023-05-05T04:47:42.660Z,95463.00
2023-05-05T04:48:42.668Z,95463.00
2023-05-05T04:49:42.736Z,95465.00
2023-05-05T04:50:42.773Z,95465.00
2023-05-05T04:51:42.848Z,95473.00
2023-05-05T04:52:42.941Z,95471.00
2023-05-05T04:53:42.975Z,95471.00
2023-05-05T04:54:43.036Z,95471.00
2023-05-05T04:55:43.098Z,95471.00
2023-05-05T04:56:43.149Z,95471.00
2023-05-05T04:57:43.140Z,95473.00
2023-05-05T04:58:43.174Z,95473.00
2023-05-05T04:59:43.174Z,95479.00
2023-05-05T05:00:43.180Z,95477.00
2023-05-05T05:01:43.222Z,95477.00
2023-05-05T05:02:43.280Z,95481.00
2023-05-05T05:03:43.274Z,95481.00
2023-05-05T05:04:43.240Z,95483.00
2023-05-05T05:05:43.266Z,95483.00
2023-05-05T05:06:43.253Z,95484.00
2023-05-05T05:07:43.278Z,95484.00
2023-05-05T05:08:43.275Z,95484.00
2023-05-05T05:09:43.300Z,95484.00
2023-05-05T05:10:43.325Z,95484.00
2023-05-05T05:11:43.308Z,95486.00
2023-05-05T05:12:43.340Z,95484.00
2023-05-05T05:13:43.330Z,95484.00
2023-05-05T05:14:43.312Z,95486.00
2023-05-05T05:15:43.359Z,95486.00
2023-05-05T05:16:43.364Z,95489.00
2023-05-05T05:17:43.368Z,95484.00
2023-05-05T05:18:43.542Z,95483.00
2023-05-05T05:19:43.360Z,95484.00
2023-05-05T05:20:43.369Z,95484.00
2023-05-05T05:21:43.324Z,95483.00
2023-05-05T05:22:43.355Z,95484.00
2023-05-05T05:23:43.375Z,95483.00
2023-05-05T05:24:43.378Z,95484.00
2023-05-05T05:25:43.381Z,95484.00
2023-05-05T05:26:43.372Z,95483.00
2023-05-05T05:27:43.361Z,95484.00
2023-05-05T05:28:43.390Z,95484.00
2023-05-05T05:29:43.400Z,95486.00
2023-05-05T05:30:43.414Z,95486.00
2023-05-05T05:31:43.449Z,95484.00
2023-05-05T05:32:43.435Z,95483.00
2023-05-05T05:33:43.565Z,95484.00
2023-05-05T05:34:43.412Z,95486.00
2023-05-05T05:35:43.421Z,95486.00
2023-05-05T05:36:43.387Z,95483.00
2023-05-05T05:37:43.389Z,95483.00
2023-05-05T05:38:43.530Z,95486.00
2023-05-05T05:39:43.799Z,95484.00
2023-05-05T05:40:43.444Z,95486.00
2023-05-05T05:41:43.501Z,95486.00
2023-05-05T05:42:43.578Z,95486.00
2023-05-05T05:43:43.579Z,95486.00
2023-05-05T05:44:43.640Z,95492.00
2023-05-05T05:45:43.627Z,95492.00
2023-05-05T05:46:43.671Z,95491.00
2023-05-05T05:47:43.694Z,95483.00
2023-05-05T05:48:43.714Z,95484.00
2023-05-05T05:49:43.750Z,95486.00
2023-05-05T05:50:43.772Z,95492.00
2023-05-05T05:51:43.829Z,95486.00
2023-05-05T05:52:43.853Z,95489.00
2023-05-05T05:53:43.946Z,95491.00
2023-05-05T05:54:44.020Z,95492.00
2023-05-05T05:55:44.064Z,95491.00
2023-05-05T05:56:44.125Z,95489.00
2023-05-05T05:57:44.148Z,95489.00
2023-05-05T05:58:44.612Z,95489.00
2023-05-05T05:59:44.241Z,95491.00
2023-05-05T06:00:44.322Z,95489.00
2023-05-05T06:01:44.409Z,95491.00
2023-05-05T06:02:44.472Z,95491.00
2023-05-05T06:03:44.680Z,95489.00
2023-05-05T06:04:44.545Z,95491.00
2023-05-05T06:05:44.549Z,95492.00
2023-05-05T06:06:44.615Z,95492.00
2023-05-05T06:07:44.662Z,95491.00
2023-05-05T06:08:45.055Z,95492.00
2023-05-05T06:09:44.708Z,95491.00
2023-05-05T06:10:44.738Z,95486.00
2023-05-05T06:11:44.779Z,95486.00
2023-05-05T06:12:44.814Z,95486.00
2023-05-05T06:13:45.032Z,95491.00
2023-05-05T06:14:44.901Z,95491.00
2023-05-05T06:15:44.956Z,95489.00
2023-05-05T06:16:44.961Z,95489.00
2023-05-05T06:17:45.043Z,95486.00
2023-05-05T06:18:45.061Z,95484.00
2023-05-05T06:19:45.082Z,95484.00
2023-05-05T06:20:45.114Z,95483.00
2023-05-05T06:21:45.126Z,95483.00
2023-05-05T06:22:45.203Z,95483.00
2023-05-05T06:23:45.230Z,95481.00
2023-05-05T06:24:45.278Z,95479.00
2023-05-05T06:25:45.346Z,95483.00
2023-05-05T06:26:45.403Z,95481.00
2023-05-05T06:27:45.481Z,95479.00
2023-05-05T06:28:45.517Z,95481.00
2023-05-05T06:29:45.587Z,95477.00
2023-05-05T06:30:45.649Z,95479.00
2023-05-05T06:31:45.753Z,95475.00
2023-05-05T06:32:45.785Z,95477.00
2023-05-05T06:33:46.085Z,95475.00
2023-05-05T06:34:45.808Z,95473.00
2023-05-05T06:35:45.823Z,95471.00
2023-05-05T06:36:45.874Z,95469.00
2023-05-05T06:37:45.898Z,95469.00
2023-05-05T06:38:46.112Z,95463.00
2023-05-05T06:39:45.923Z,95461.00
2023-05-05T06:40:45.956Z,95461.00
2023-05-05T06:41:46.035Z,95463.00
2023-05-05T06:42:46.110Z,95457.00
2023-05-05T06:43:46.145Z,95459.00
2023-05-05T06:44:46.172Z,95455.00
2023-05-05T06:45:46.281Z,95457.00
2023-05-05T06:46:46.312Z,95453.00
2023-05-05T06:47:46.355Z,95455.00
2023-05-05T06:48:46.434Z,95453.00
2023-05-05T06:49:46.478Z,95451.00
2023-05-05T06:50:46.524Z,95451.00
2023-05-05T06:51:46.624Z,95453.00
2023-05-05T06:52:46.647Z,95451.00
2023-05-05T06:53:46.734Z,95449.00
2023-05-05T06:54:46.711Z,95453.00
2023-05-05T06:55:46.765Z,95451.00
2023-05-05T06:56:46.857Z,95453.00
2023-05-05T06:57:46.873Z,95453.00
2023-05-05T06:58:46.957Z,95453.00
2023-05-05T06:59:46.977Z,95457.00
2023-05-05T07:00:47.046Z,95453.00
2023-05-05T07:01:47.050Z,95455.00
2023-05-05T07:02:47.127Z,95453.00
2023-05-05T07:03:47.620Z,95453.00
2023-05-05T07:04:47.139Z,95453.00
2023-05-05T07:05:47.174Z,95449.00
2023-05-05T07:06:47.213Z,95449.00
2023-05-05T07:07:47.243Z,95444.00
2023-05-05T07:08:47.268Z,95444.00
2023-05-05T07:09:47.430Z,95444.00
2023-05-05T07:10:47.361Z,95445.00
2023-05-05T07:11:47.361Z,95442.00
2023-05-05T07:12:47.391Z,95442.00
2023-05-05T07:13:47.582Z,95440.00
2023-05-05T07:14:47.396Z,95438.00
2023-05-05T07:15:47.430Z,95438.00
2023-05-05T07:16:47.521Z,95438.00
2023-05-05T07:17:47.568Z,95428.00
2023-05-05T07:18:47.523Z,95426.00
2023-05-05T07:19:48.131Z,95424.00
2023-05-05T07:20:47.508Z,95424.00
2023-05-05T07:21:47.529Z,95420.00
2023-05-05T07:22:47.549Z,95420.00
2023-05-05T07:23:47.602Z,95418.00
2023-05-05T07:24:49.145Z,95418.00
2023-05-05T07:25:47.651Z,95418.00
2023-05-05T07:26:47.575Z,95416.00
2023-05-05T07:27:47.587Z,95416.00
2023-05-05T07:28:47.616Z,95414.00
2023-05-05T07:29:47.595Z,95414.00
2023-05-05T07:30:47.606Z,95416.00
2023-05-05T07:31:47.670Z,95412.00
2023-05-05T07:32:47.719Z,95416.00
2023-05-05T07:33:48.112Z,95412.00
2023-05-05T07:34:47.639Z,95412.00
2023-05-05T07:35:47.634Z,95410.00
2023-05-05T07:36:47.646Z,95408.00
2023-05-05T07:37:47.658Z,95408.00
2023-05-05T07:38:48.114Z,95410.00
2023-05-05T07:39:47.608Z,95408.00
2023-05-05T07:40:47.644Z,95408.00
2023-05-05T07:41:47.752Z,95406.00
2023-05-05T07:42:47.629Z,95404.00
2023-05-05T07:43:47.648Z,95406.00
2023-05-05T07:44:47.647Z,95402.00
2023-05-05T07:45:47.685Z,95402.00
2023-05-05T07:46:47.634Z,95398.00
2023-05-05T07:47:47.664Z,95396.00
2023-05-05T07:48:47.629Z,95394.00
2023-05-05T07:49:47.700Z,95391.00
2023-05-05T07:50:47.659Z,95389.00
2023-05-05T07:51:47.647Z,95387.00
2023-05-05T07:52:51.851Z,95385.00
2023-05-05T07:53:48.697Z,95387.00
2023-05-05T07:54:47.674Z,95383.00
2023-05-05T07:55:47.632Z,95381.00
2023-05-05T07:56:47.627Z,95381.00
2023-05-05T07:57:47.770Z,95377.00
2023-05-05T07:58:48.107Z,95381.00
2023-05-05T07:59:47.636Z,95379.00
2023-05-05T08:00:47.648Z,95377.00
2023-05-05T08:01:47.612Z,95377.00
2023-05-05T08:02:47.660Z,95377.00
2023-05-05T08:03:47.676Z,95377.00
2023-05-05T08:04:47.679Z,95377.00
2023-05-05T08:05:48.618Z,95375.00
2023-05-05T08:06:47.606Z,95379.00
2023-05-05T08:07:47.586Z,95375.00
2023-05-05T08:08:47.571Z,95375.00
2023-05-05T08:09:47.569Z,95375.00
2023-05-05T08:10:47.570Z,95377.00
2023-05-05T08:11:47.536Z,95371.00
2023-05-05T08:12:47.572Z,95371.00
2023-05-05T08:13:47.600Z,95369.00
2023-05-05T08:14:47.523Z,95369.00
2023-05-05T08:15:47.627Z,95369.00
2023-05-05T08:16:47.515Z,95369.00
2023-05-05T08:17:47.668Z,95365.00
2023-05-05T08:18:47.489Z,95363.00
2023-05-05T08:19:47.508Z,95363.00
2023-05-05T08:20:47.460Z,95363.00
2023-05-05T08:21:47.458Z,95361.00
2023-05-05T08:22:47.487Z,95363.00
2023-05-05T08:23:47.532Z,95357.00
2023-05-05T08:24:47.612Z,95357.00
2023-05-05T08:25:47.472Z,95355.00
2023-05-05T08:26:47.476Z,95357.00
2023-05-05T08:27:47.504Z,95355.00
2023-05-05T08:28:47.502Z,95355.00
2023-05-05T08:29:47.731Z,95353.00
2023-05-05T08:30:47.520Z,95351.00
2023-05-05T08:31:47.537Z,95349.00
2023-05-05T08:32:47.570Z,95349.00
2023-05-05T08:33:47.497Z,95349.00
2023-05-05T08:34:47.600Z,95345.00
2023-05-05T08:35:47.514Z,95342.00
2023-05-05T08:36:47.503Z,95342.00
2023-05-05T08:37:47.568Z,95342.00
2023-05-05T08:38:47.576Z,95336.00
2023-05-05T08:39:47.525Z,95336.00
2023-05-05T08:40:47.488Z,95332.00
2023-05-05T08:41:47.512Z,95332.00
2023-05-05T08:42:47.551Z,95330.00
2023-05-05T08:43:47.555Z,95330.00
2023-05-05T08:44:47.576Z,95328.00
2023-05-05T08:45:47.576Z,95326.00
2023-05-05T08:46:47.612Z,95326.00
2023-05-05T08:47:47.578Z,95324.00
2023-05-05T08:48:47.594Z,95322.00
2023-05-05T08:49:47.584Z,95322.00
2023-05-05T08:50:47.620Z,95320.00
2023-05-05T08:51:47.598Z,95318.00
2023-05-05T08:52:49.855Z,95316.00
2023-05-05T08:53:47.575Z,95316.00
2023-05-05T08:54:47.609Z,95316.00
2023-05-05T08:55:47.589Z,95318.00
2023-05-05T08:56:47.588Z,95318.00
2023-05-05T08:57:47.598Z,95316.00
2023-05-05T08:58:47.614Z,95316.00
2023-05-05T08:59:47.550Z,95314.00
2023-05-05T09:00:47.610Z,95312.00
2023-05-05T09:01:47.713Z,95308.00
2023-05-05T09:02:47.721Z,95308.00
2023-05-05T09:03:47.542Z,95306.00
2023-05-05T09:04:47.530Z,95306.00
2023-05-05T09:05:47.557Z,95303.00
2023-05-05T09:06:47.523Z,95303.00
2023-05-05T09:07:47.627Z,95303.00
2023-05-05T09:08:47.504Z,95300.00
2023-05-05T09:09:47.512Z,95303.00
2023-05-05T09:10:47.523Z,95300.00
2023-05-05T09:11:47.498Z,95298.00
2023-05-05T09:12:47.534Z,95298.00
2023-05-05T09:13:47.439Z,95297.00
2023-05-05T09:14:47.658Z,95298.00
2023-05-05T09:15:47.480Z,95293.00
2023-05-05T09:16:47.453Z,95293.00
2023-05-05T09:17:47.601Z,95291.00
2023-05-05T09:18:47.433Z,95291.00
2023-05-05T09:19:47.445Z,95289.00
2023-05-05T09:20:47.395Z,95285.00
2023-05-05T09:21:47.415Z,95285.00
2023-05-05T09:22:47.459Z,95285.00
2023-05-05T09:23:47.415Z,95283.00
2023-05-05T09:24:47.370Z,95281.00
2023-05-05T09:25:47.371Z,95279.00
2023-05-05T09:26:47.384Z,95279.00
2023-05-05T09:27:47.402Z,95275.00
2023-05-05T09:28:47.397Z,95275.00
2023-05-05T09:29:47.407Z,95275.00
2023-05-05T09:30:47.394Z,95271.00
2023-05-05T09:31:47.362Z,95273.00
2023-05-05T09:32:47.413Z,95269.00
2023-05-05T09:33:47.395Z,95269.00
2023-05-05T09:34:47.644Z,95267.00
2023-05-05T09:35:47.358Z,95263.00
2023-05-05T09:36:47.373Z,95261.00
2023-05-05T09:37:47.333Z,95258.00
2023-05-05T09:38:47.331Z,95258.00
2023-05-05T09:39:47.629Z,95256.00
2023-05-05T09:40:47.431Z,95259.00
2023-05-05T09:41:47.504Z,95258.00
2023-05-05T09:42:47.534Z,95256.00
2023-05-05T09:43:47.556Z,95256.00
2023-05-05T09:44:47.662Z,95252.00
2023-05-05T09:45:47.676Z,95252.00
2023-05-05T09:46:47.829Z,95250.00
2023-05-05T09:47:47.921Z,95250.00
2023-05-05T09:48:47.901Z,95254.00
2023-05-05T09:49:48.217Z,95252.00
2023-05-05T09:50:47.924Z,95254.00
2023-05-05T09:51:47.990Z,95250.00
2023-05-05T09:52:48.173Z,95254.00
2023-05-05T09:53:47.994Z,95250.00
2023-05-05T09:54:48.050Z,95248.00
2023-05-05T09:55:48.073Z,95246.00
2023-05-05T09:56:48.120Z,95246.00
2023-05-05T09:57:48.110Z,95246.00
2023-05-05T09:58:48.212Z,95244.00
2023-05-05T09:59:48.181Z,95244.00
2023-05-05T10:00:48.198Z,95244.00
2023-05-05T10:01:48.241Z,95242.00
2023-05-05T10:02:48.557Z,95242.00
2023-05-05T10:03:48.271Z,95240.00
2023-05-05T10:04:48.334Z,95238.00
2023-05-05T10:05:48.432Z,95236.00
2023-05-05T10:06:48.308Z,95236.00
2023-05-05T10:07:48.322Z,95234.00
2023-05-05T10:08:48.334Z,95236.00
2023-05-05T10:09:48.361Z,95232.00
2023-05-05T10:10:48.410Z,95232.00
2023-05-05T10:11:48.391Z,95228.00
2023-05-05T10:12:48.404Z,95226.00
2023-05-05T10:13:48.384Z,95226.00
2023-05-05T10:14:48.667Z,95224.00
2023-05-05T10:15:48.517Z,95220.00
2023-05-05T10:16:48.470Z,95220.00
2023-05-05T10:18:05.091Z,95216.00
2023-05-05T10:18:49.469Z,95220.00
2023-05-05T10:19:48.625Z,95218.00
2023-05-05T10:20:48.445Z,95214.00
2023-05-05T10:21:48.487Z,95211.00
2023-05-05T10:22:48.457Z,95212.00
2023-05-05T10:23:48.421Z,95207.00
2023-05-05T10:24:48.370Z,95207.00
2023-05-05T10:25:48.415Z,95209.00
2023-05-05T10:26:48.405Z,95207.00
2023-05-05T10:27:48.392Z,95209.00
2023-05-05T10:28:48.394Z,95205.00
2023-05-05T10:29:48.679Z,95203.00
2023-05-05T10:30:48.362Z,95197.00
2023-05-05T10:31:48.363Z,95197.00
2023-05-05T10:32:59.392Z,95195.00
2023-05-05T10:33:49.421Z,95193.00
2023-05-05T10:34:48.663Z,95191.00
2023-05-05T10:35:48.340Z,95191.00
2023-05-05T10:36:48.334Z,95187.00
2023-05-05T10:37:48.420Z,95183.00
2023-05-05T10:38:48.319Z,95183.00
2023-05-05T10:39:48.656Z,95181.00
2023-05-05T10:40:48.318Z,95171.00
2023-05-05T10:41:48.280Z,95165.00
2023-05-05T10:42:48.304Z,95163.00
2023-05-05T10:43:48.302Z,95163.00
2023-05-05T10:44:48.656Z,95158.00
2023-05-05T10:45:48.488Z,95161.00
2023-05-05T10:46:48.277Z,95161.00
2023-05-05T10:47:48.309Z,95158.00
2023-05-05T10:48:48.297Z,95158.00
2023-05-05T10:49:48.647Z,95158.00
2023-05-05T10:50:48.295Z,95158.00
2023-05-05T10:51:48.248Z,95152.00
2023-05-05T10:52:48.249Z,95150.00
2023-05-05T10:53:48.340Z,95152.00
2023-05-05T10:54:48.272Z,95150.00
2023-05-05T10:55:49.179Z,95146.00
2023-05-05T10:56:48.233Z,95146.00
2023-05-05T10:57:48.189Z,95142.00
2023-05-05T10:58:59.819Z,95140.00
2023-05-05T10:59:49.661Z,95142.00
2023-05-05T11:00:48.209Z,95140.00
2023-05-05T11:01:48.181Z,95136.00
2023-05-05T11:02:48.177Z,95134.00
2023-05-05T11:03:48.192Z,95134.00
2023-05-05T11:04:48.137Z,95130.00
2023-05-05T11:05:48.201Z,95126.00
2023-05-05T11:06:48.130Z,95126.00
2023-05-05T11:07:48.186Z,95124.00
2023-05-05T11:08:48.124Z,95122.00
2023-05-05T11:09:48.176Z,95122.00
2023-05-05T11:10:48.088Z,95114.00
2023-05-05T11:11:48.072Z,95112.00
2023-05-05T11:12:48.160Z,95111.00
2023-05-05T11:13:48.167Z,95107.00
2023-05-05T11:14:48.673Z,95107.00
2023-05-05T11:15:48.250Z,95105.00
2023-05-05T11:16:48.476Z,95103.00
2023-05-05T11:17:48.517Z,95101.00
2023-05-05T11:18:48.426Z,95097.00
2023-05-05T11:19:48.710Z,95097.00
2023-05-05T11:20:48.512Z,95097.00
2023-05-05T11:21:48.575Z,95091.00
2023-05-05T11:22:48.615Z,95087.00
2023-05-05T11:23:48.680Z,95085.00
2023-05-05T11:24:49.162Z,95081.00
2023-05-05T11:25:48.777Z,95081.00
2023-05-05T11:26:48.803Z,95083.00
2023-05-05T11:27:49.034Z,95081.00
2023-05-05T11:28:48.918Z,95081.00
2023-05-05T11:29:51.497Z,95077.00
2023-05-05T11:30:48.945Z,95079.00
2023-05-05T11:31:48.927Z,95079.00
2023-05-05T11:32:48.973Z,95073.00
2023-05-05T11:33:48.894Z,95077.00
2023-05-05T11:34:48.936Z,95073.00
2023-05-05T11:35:48.911Z,95075.00
2023-05-05T11:36:48.900Z,95064.00
2023-05-05T11:37:48.889Z,95070.00
2023-05-05T11:38:48.893Z,95068.00
2023-05-05T11:39:48.916Z,95066.00
2023-05-05T11:40:48.894Z,95064.00
2023-05-05T11:41:48.918Z,95064.00
2023-05-05T11:42:48.839Z,95060.00
2023-05-05T11:43:48.863Z,95060.00
2023-05-05T11:44:48.878Z,95056.00